Terminal Aerodrome Forecast
Issued by NWS

Home | Current Version | Previous Version | Text Only | Print | Product List | Glossary On
Versions: 1 2 3 4 5 6 7 8 9 10 11 12 13 14 15 16 17 18 19
000
FTUS43 KOAX 291300 AAB
TAFSNY
TAF AMD
KSNY 291330Z 2914/3012 10007KT P6SM SCT150
      TEMPO 2914/2916 1SM BR BKN002
     FM291600 13013KT P6SM OVC040
     FM291900 09015KT P6SM VCTS OVC040CB
     FM300300 VRB04KT 5SM -SHRA VCTS SCT025CB BKN040=

USA.gov is the U.S. government's official web portal to all federal, state and local government web resources and services.